Etusivu
METAR-TAF:

METAR-TAF

Lentoasemat :

Baraboo Wisconsin Dells Airport

Baraboo / Wisconsin Dells, Wisconsin, Yhdysvallat

Leveyspiiri: 43-31-19N, Pituuspiiri: 089-46-15W, korkeus merenpinnasta: 298 m

Tämänhetkinen sää

Tämä raportti tehtiin 24 minuuttia sitten, kello 07.55 UTC
Tuuli 11 kn luoteesta puuskistuen 16 kn:hen
Lämpötila -2°C
Kosteus 93%
Ilmanpaine 1020 hPa
Näkyvyys: 16.1 km
Pilvistä 700 ft:n korkeudessa

METAR: KDLL 040755Z AUTO 31011G16KT 10SM OVC007 M02/M03 A3011 RMK AO2 T10251030

Aika: 03:19 (08:19 UTC)


TAF: puuttuu

Säähavainnot ja -ennusteet yli 4000 lentoasemalta (METAR- ja TAF-raportit).

Käytössä olevat sääasemat on merkitty karttaan keltaisilla ja punaisilla pisteillä.

Aseta hiiri pisteen päälle nähdäksesi sääaseman nimen.

Klikkaa sitten nähdäksesi säähavainnot ja -ennusteet.

Kartan vaihtaminen: klikkaa mustalla rastilla varustettuja vihreitä pisteitä, niin voit zoomata sisään; viivalla varustettua vihreää pistettä, niin voit zoomata ulos tai vihreitä nuolia, niin pääset viereisille kartoille.


METAR-TAF: